Time;durP1;ratioP1;P1;durP2;ratioP2;P2;SDS_P1;SDS_P2;PMS_P1;PMS_P2;Temp;Humidity;BMP_temperature;BMP_pressure;BME280_temperature;BME280_humidity;BME280_pressure;Samples;Min_cycle;Max_cycle;Signal;HPM_P1;HPM_P2
2023/03/04 00:02:06;;;;;;;11.85;2.25;;;;;;;5.80;100.00;102633.75;2616146;31;20450;-55
2023/03/04 00:04:37;;;;;;;11.40;1.90;;;;;;;5.75;100.00;102630.38;2615463;36;20056;-57
2023/03/04 00:07:05;;;;;;;13.75;1.88;;;;;;;5.75;100.00;102638.38;2616408;36;20034;-53
2023/03/04 00:09:33;;;;;;;12.85;2.30;;;;;;;5.70;100.00;102637.72;2615393;36;20038;-56
2023/03/04 00:12:02;;;;;;;17.30;2.38;;;;;;;5.68;100.00;102634.22;2615769;36;20038;-51
2023/03/04 00:14:30;;;;;;;11.98;2.05;;;;;;;5.78;100.00;102636.44;2613369;31;20465;-53
2023/03/04 00:16:59;;;;;;;7.97;1.33;;;;;;;5.81;100.00;102640.81;2614925;36;20038;-50
2023/03/04 00:19:27;;;;;;;9.93;3.00;;;;;;;5.72;100.00;102635.84;2614102;36;20038;-50
2023/03/04 00:21:58;;;;;;;7.90;1.60;;;;;;;5.80;100.00;102633.75;2614301;31;20303;-52
2023/03/04 00:24:26;;;;;;;14.00;2.40;;;;;;;5.86;100.00;102637.94;2615498;36;20045;-51
2023/03/04 00:26:55;;;;;;;15.27;1.90;;;;;;;5.73;100.00;102626.91;2614380;36;20034;-50
2023/03/04 00:29:23;;;;;;;5.97;1.40;;;;;;;5.77;100.00;102629.38;2615420;36;20034;-54
2023/03/04 00:31:51;;;;;;;14.93;2.47;;;;;;;5.81;100.00;102629.25;2614601;36;20048;-50
2023/03/04 00:34:20;;;;;;;10.73;2.15;;;;;;;5.83;100.00;102628.28;2613620;36;20041;-51
2023/03/04 00:36:59;;;;;;;9.82;1.85;;;;;;;5.69;100.00;102627.94;2615689;36;20042;-52
2023/03/04 00:39:30;;;;;;;11.95;2.78;;;;;;;5.76;100.00;102638.31;2616035;31;20523;-50
2023/03/04 00:41:59;;;;;;;8.85;2.20;;;;;;;5.90;100.00;102627.09;2615733;36;20038;-49
2023/03/04 00:44:27;;;;;;;8.43;1.90;;;;;;;5.83;100.00;102630.06;2615457;36;20038;-52
2023/03/04 00:46:55;;;;;;;14.35;2.08;;;;;;;5.78;100.00;102632.91;2615802;36;20045;-49
2023/03/04 00:49:24;;;;;;;8.85;1.75;;;;;;;5.77;100.00;102636.50;2615477;36;20420;-54
2023/03/04 00:51:53;;;;;;;9.63;2.40;;;;;;;5.76;100.00;102624.09;2615728;36;20551;-54
2023/03/04 00:54:21;;;;;;;9.68;2.20;;;;;;;5.82;100.00;102618.50;2614956;36;20068;-56
2023/03/04 00:56:52;;;;;;;7.20;2.28;;;;;;;5.74;100.00;102631.28;2615138;36;20132;-56
2023/03/04 00:59:20;;;;;;;13.82;1.85;;;;;;;5.76;100.00;102632.13;2614995;36;20113;-55
2023/03/04 01:01:49;;;;;;;14.63;1.90;;;;;;;5.66;100.00;102634.28;2614622;36;20034;-52
2023/03/04 01:04:17;;;;;;;6.78;1.80;;;;;;;5.73;100.00;102626.91;2615005;31;20443;-53
2023/03/04 01:06:46;;;;;;;10.30;1.60;;;;;;;5.81;100.00;102624.78;2614768;36;20042;-57
2023/03/04 01:09:15;;;;;;;12.00;2.08;;;;;;;5.82;100.00;102631.88;2614901;36;20042;-55
2023/03/04 01:11:43;;;;;;;12.48;1.90;;;;;;;5.76;100.00;102629.44;2614806;36;20077;-57
2023/03/04 01:14:14;;;;;;;14.15;2.65;;;;;;;5.70;100.00;102635.03;2614782;36;20547;-52
2023/03/04 01:16:42;;;;;;;16.40;2.15;;;;;;;5.85;100.00;102626.41;2615396;36;20045;-56
2023/03/04 01:19:11;;;;;;;13.80;1.75;;;;;;;5.89;100.00;102632.47;2614342;36;20031;-53
2023/03/04 01:21:39;;;;;;;18.98;2.55;;;;;;;5.73;100.00;102642.94;2614898;36;20039;-53
2023/03/04 01:24:08;;;;;;;10.27;1.60;;;;;;;5.63;100.00;102630.88;2614953;36;20026;-56
2023/03/04 01:26:36;;;;;;;6.32;1.48;;;;;;;5.63;100.00;102628.19;2614252;36;20038;-56
2023/03/04 01:29:05;;;;;;;7.38;1.58;;;;;;;5.66;100.00;102610.22;2614332;36;20554;-54
2023/03/04 01:31:36;;;;;;;7.57;1.50;;;;;;;5.67;100.00;102627.13;2614135;36;20038;-53
2023/03/04 01:34:04;;;;;;;6.50;2.08;;;;;;;5.64;100.00;102613.88;2614119;36;20447;-54
2023/03/04 01:36:32;;;;;;;10.38;1.75;;;;;;;5.69;100.00;102614.59;2614507;36;20030;-58
2023/03/04 01:39:01;;;;;;;13.30;1.88;;;;;;;5.67;100.00;102608.41;2614089;36;20050;-58
2023/03/04 01:41:30;;;;;;;11.30;1.83;;;;;;;5.75;100.00;102619.69;2614603;36;20635;-51
2023/03/04 01:44:01;;;;;;;13.23;2.08;;;;;;;5.63;100.00;102609.50;2614101;36;20034;-51
2023/03/04 01:46:30;;;;;;;10.35;2.03;;;;;;;5.72;100.00;102609.13;2614296;36;20031;-55
2023/03/04 01:49:01;;;;;;;12.45;2.00;;;;;;;5.60;100.00;102600.66;2615324;36;20039;-53
2023/03/04 01:51:30;;;;;;;11.75;2.10;;;;;;;5.71;100.00;102596.69;2615675;36;20524;-55
2023/03/04 01:53:58;;;;;;;13.68;1.50;;;;;;;5.72;100.00;102599.28;2615640;36;20061;-52
2023/03/04 01:56:30;;;;;;;14.75;1.70;;;;;;;5.78;100.00;102590.16;2615683;36;20037;-54
2023/03/04 01:59:13;;;;;;;10.75;1.83;;;;;;;5.72;100.00;102585.06;2615702;36;20045;-51
2023/03/04 02:01:45;;;;;;;13.75;1.92;;;;;;;5.84;100.00;102586.38;2615183;36;20034;-55
2023/03/04 02:04:18;;;;;;;9.15;1.63;;;;;;;5.85;100.00;102580.97;2615379;31;20039;-51
2023/03/04 02:06:48;;;;;;;10.32;1.77;;;;;;;5.90;100.00;102581.66;2614477;36;20045;-59
2023/03/04 02:09:18;;;;;;;13.77;2.17;;;;;;;5.87;100.00;102583.56;2615448;36;20039;-52
2023/03/04 02:11:47;;;;;;;;;;;;;;;5.91;100.00;102579.84;2615970;36;20031;-53
2023/03/04 02:14:17;;;;;;;6.47;1.48;;;;;;;5.73;100.00;102574.31;2613859;36;19992;-60
2023/03/04 02:16:46;;;;;;;11.23;2.17;;;;;;;5.73;100.00;102565.44;2615042;36;20074;-56
2023/03/04 02:19:29;;;;;;;11.02;1.88;;;;;;;5.69;100.00;102580.72;2614858;36;20045;-52
2023/03/04 02:21:57;;;;;;;8.63;1.70;;;;;;;5.66;100.00;102578.16;2614955;36;20031;-53
2023/03/04 02:24:32;;;;;;;14.43;2.00;;;;;;;5.66;100.00;102575.50;2615808;36;20442;-54
2023/03/04 02:27:03;;;;;;;12.15;1.77;;;;;;;5.63;100.00;102570.28;2615938;36;20042;-55
2023/03/04 02:29:32;;;;;;;6.28;1.80;;;;;;;5.62;100.00;102563.19;2615116;36;20547;-54
2023/03/04 02:32:00;;;;;;;7.27;1.60;;;;;;;5.58;100.00;102565.13;2615020;31;20041;-54
2023/03/04 02:34:31;;;;;;;10.77;1.80;;;;;;;5.76;100.00;102562.66;2613661;36;20060;-57
2023/03/04 02:37:01;;;;;;;7.93;1.80;;;;;;;5.69;100.00;102561.16;2615019;36;20033;-54
2023/03/04 02:39:30;;;;;;;;;;;;;;;5.54;100.00;102555.50;2615222;36;20034;-54
2023/03/04 02:41:58;;;;;;;9.02;1.88;;;;;;;5.49;100.00;102560.16;2616223;36;20320;-56
2023/03/04 02:44:31;;;;;;;9.50;1.40;;;;;;;5.54;100.00;102555.50;2615967;31;20034;-55
2023/03/04 02:47:00;;;;;;;18.25;1.63;;;;;;;5.53;100.00;102551.06;2615900;36;20582;-54
2023/03/04 02:49:31;;;;;;;10.45;1.70;;;;;;;5.57;100.00;102549.16;2616262;36;20026;-55
2023/03/04 02:52:04;;;;;;;9.10;1.83;;;;;;;5.61;100.00;102540.09;2616040;36;20038;-57
2023/03/04 02:54:33;;;;;;;13.25;1.65;;;;;;;5.64;100.00;102539.09;2615103;36;20045;-57
2023/03/04 02:57:03;;;;;;;8.83;1.50;;;;;;;5.71;100.00;102545.91;2616347;36;20046;-55
2023/03/04 02:59:35;;;;;;;7.07;1.30;;;;;;;5.67;100.00;102536.28;2615870;36;20034;-53
2023/03/04 03:02:03;;;;;;;11.15;2.95;;;;;;;5.56;100.00;102540.25;2616458;36;20065;-52
2023/03/04 03:04:32;;;;;;;7.07;2.72;;;;;;;5.71;100.00;102532.56;2615738;36;20417;-56
2023/03/04 03:07:00;;;;;;;12.27;1.47;;;;;;;5.57;100.00;102528.66;2616608;36;20042;-53
2023/03/04 03:09:29;;;;;;;9.25;1.50;;;;;;;5.60;100.00;102531.19;2615574;36;20299;-53
2023/03/04 03:11:57;;;;;;;10.82;1.70;;;;;;;5.74;100.00;102522.63;2616511;36;20552;-56
2023/03/04 03:14:26;;;;;;;5.85;1.23;;;;;;;5.84;100.00;102520.44;2615777;36;20396;-58
2023/03/04 03:16:56;;;;;;;6.72;1.30;;;;;;;5.68;100.00;102517.53;2616267;36;20038;-55
2023/03/04 03:19:25;;;;;;;8.65;1.75;;;;;;;5.69;100.00;102523.75;2615898;31;20034;-50
2023/03/04 03:21:53;;;;;;;8.93;1.58;;;;;;;5.67;100.00;102525.59;2616552;36;20049;-51
2023/03/04 03:24:22;;;;;;;9.05;1.70;;;;;;;5.66;100.00;102515.88;2615017;36;20034;-53
2023/03/04 03:26:50;;;;;;;8.65;1.70;;;;;;;5.69;100.00;102518.41;2616211;36;20042;-52
2023/03/04 03:29:18;;;;;;;15.60;2.30;;;;;;;5.68;100.00;102517.53;2615616;36;20034;-53
2023/03/04 03:31:47;;;;;;;7.90;1.77;;;;;;;5.73;100.00;102515.53;2616275;36;20030;-52
2023/03/04 03:34:18;;;;;;;10.57;1.57;;;;;;;5.69;100.00;102519.28;2615212;36;20046;-53
2023/03/04 03:36:46;;;;;;;11.27;1.85;;;;;;;5.62;100.00;102512.44;2616078;36;20034;-55
2023/03/04 03:39:14;;;;;;;11.57;1.52;;;;;;;5.63;100.00;102522.19;2615337;36;20045;-54
2023/03/04 03:41:43;;;;;;;8.80;1.30;;;;;;;5.74;100.00;102517.28;2615844;36;20035;-55
2023/03/04 03:44:11;;;;;;;5.65;2.00;;;;;;;5.79;100.00;102519.78;2615634;36;20030;-51
2023/03/04 03:46:39;;;;;;;13.02;1.77;;;;;;;5.75;100.00;102523.50;2616339;36;20022;-54
2023/03/04 03:49:08;;;;;;;5.78;1.40;;;;;;;5.69;100.00;102519.28;2615089;36;20043;-53
2023/03/04 03:51:39;;;;;;;7.50;2.05;;;;;;;5.69;100.00;102519.28;2616262;36;20133;-57
2023/03/04 03:54:07;;;;;;;9.73;1.75;;;;;;;5.72;100.00;102512.94;2615880;31;20065;-54
2023/03/04 03:56:35;;;;;;;11.18;1.70;;;;;;;5.70;100.00;102504.13;2616058;36;20052;-52
2023/03/04 03:59:04;;;;;;;10.77;1.40;;;;;;;5.34;100.00;102508.22;2616045;36;20039;-55
2023/03/04 04:01:32;;;;;;;7.53;1.60;;;;;;;5.20;100.00;102522.13;2615864;36;20065;-54
2023/03/04 04:04:00;;;;;;;9.27;1.93;;;;;;;5.20;100.00;102514.13;2614940;36;20035;-55
2023/03/04 04:06:29;;;;;;;4.37;1.30;;;;;;;5.22;100.00;102514.06;2615686;36;20546;-57
2023/03/04 04:09:00;;;;;;;9.00;1.58;;;;;;;5.43;100.00;102523.00;2615644;36;20026;-52
2023/03/04 04:11:28;;;;;;;4.35;1.30;;;;;;;5.44;100.00;102520.25;2615826;31;20038;-56
2023/03/04 04:13:56;;;;;;;6.30;1.20;;;;;;;5.52;100.00;102509.28;2615341;36;20041;-58
2023/03/04 04:16:25;;;;;;;12.05;1.38;;;;;;;5.64;100.00;102505.25;2616010;31;20600;-54
2023/03/04 04:18:53;;;;;;;6.20;1.40;;;;;;;5.71;100.00;102512.09;2615626;36;20412;-56
2023/03/04 04:21:21;;;;;;;8.88;2.03;;;;;;;5.66;100.00;102513.19;2616341;36;20043;-54
2023/03/04 04:23:50;;;;;;;6.87;1.40;;;;;;;5.51;100.00;102510.22;2615612;36;20034;-57
2023/03/04 04:26:21;;;;;;;7.20;1.60;;;;;;;5.62;100.00;102501.75;2614981;36;20043;-52
2023/03/04 04:28:50;;;;;;;9.82;1.85;;;;;;;5.66;100.00;102513.19;2615800;36;20056;-52
2023/03/04 04:31:18;;;;;;;6.03;1.52;;;;;;;5.66;100.00;102498.03;2616414;36;20121;-51
2023/03/04 04:33:46;;;;;;;11.23;1.80;;;;;;;5.57;100.00;102509.97;2613244;36;20041;-55
2023/03/04 04:36:16;;;;;;;6.53;1.40;;;;;;;5.60;100.00;102514.31;2615806;36;20034;-56
2023/03/04 04:38:45;;;;;;;7.07;1.58;;;;;;;5.42;100.00;102513.28;2615656;36;20623;-50
2023/03/04 04:41:23;;;;;;;5.47;1.13;;;;;;;5.70;100.00;102513.00;2616531;31;20030;-53
2023/03/04 04:43:52;;;;;;;7.47;1.25;;;;;;;5.72;100.00;102513.78;2615919;36;20041;-54
2023/03/04 04:46:21;;;;;;;11.98;1.80;;;;;;;5.65;100.00;102511.44;2616349;36;20431;-52
2023/03/04 04:48:49;;;;;;;4.70;1.10;;;;;;;5.70;100.00;102509.47;2615194;36;20558;-52
2023/03/04 04:51:17;;;;;;;6.30;1.20;;;;;;;5.69;100.00;102507.72;2615494;36;20065;-54
2023/03/04 04:53:46;;;;;;;5.13;1.10;;;;;;;5.67;100.00;102515.81;2615085;36;20089;-54
2023/03/04 04:56:16;;;;;;;5.05;1.40;;;;;;;5.72;100.00;102513.78;2615659;36;20134;-52
2023/03/04 04:58:48;;;;;;;5.05;1.30;;;;;;;5.97;100.00;102507.47;2615651;36;20043;-51
2023/03/04 05:01:17;;;;;;;5.72;1.40;;;;;;;5.77;100.00;102509.16;2616439;31;20428;-54
2023/03/04 05:03:45;;;;;;;10.40;1.75;;;;;;;5.74;100.00;102516.41;2615169;36;20061;-53
2023/03/04 05:06:16;;;;;;;9.07;1.60;;;;;;;5.80;100.00;102513.50;2615464;36;20030;-54
2023/03/04 05:08:44;;;;;;;9.95;2.08;;;;;;;5.76;100.00;102511.88;2615997;36;20535;-53
2023/03/04 05:11:13;;;;;;;8.25;1.60;;;;;;;5.84;100.00;102514.22;2615511;36;20422;-50
2023/03/04 05:13:41;;;;;;;6.88;1.50;;;;;;;5.90;100.00;102508.63;2615952;36;20035;-51
2023/03/04 05:16:13;;;;;;;7.33;1.80;;;;;;;5.73;100.00;102506.66;2615059;36;20038;-51
2023/03/04 05:18:41;;;;;;;9.48;2.03;;;;;;;5.67;100.00;102504.22;2615029;36;20291;-55
2023/03/04 05:21:10;;;;;;;7.43;1.50;;;;;;;5.78;100.00;102504.66;2615656;36;20680;-51
2023/03/04 05:23:42;;;;;;;8.52;1.17;;;;;;;5.78;100.00;102502.00;2615749;36;20842;-51
2023/03/04 05:26:13;;;;;;;12.43;1.77;;;;;;;5.80;100.00;102497.47;2614825;36;20034;-53
2023/03/04 05:28:41;;;;;;;8.30;1.55;;;;;;;5.83;100.00;102494.66;2615719;36;20034;-53
2023/03/04 05:31:12;;;;;;;12.45;1.58;;;;;;;5.77;100.00;102497.56;2616052;36;20034;-53
2023/03/04 05:33:41;;;;;;;8.23;1.85;;;;;;;5.72;100.00;102500.44;2614952;36;20045;-51
2023/03/04 05:36:10;;;;;;;12.68;1.95;;;;;;;5.68;100.00;102503.31;2615853;36;20034;-55
2023/03/04 05:38:38;;;;;;;14.75;2.42;;;;;;;5.80;100.00;102505.50;2615627;36;20035;-55
2023/03/04 05:41:08;;;;;;;7.67;1.80;;;;;;;5.97;100.00;102508.31;2615479;36;20035;-52
2023/03/04 05:43:41;;;;;;;9.27;1.60;;;;;;;5.78;100.00;102508.19;2615533;36;20577;-55
2023/03/04 05:46:15;;;;;;;7.28;1.30;;;;;;;5.81;100.00;102504.53;2615351;36;20416;-57
2023/03/04 05:48:43;;;;;;;6.75;1.20;;;;;;;5.82;100.00;102513.44;2614609;31;20035;-53
2023/03/04 05:51:12;;;;;;;16.95;2.25;;;;;;;5.82;100.00;102514.28;2615702;36;20065;-50
2023/03/04 05:53:40;;;;;;;7.03;1.25;;;;;;;5.90;100.00;102520.19;2615635;36;20035;-53
2023/03/04 05:56:10;;;;;;;11.85;1.50;;;;;;;5.84;100.00;102514.22;2615043;36;20035;-51
2023/03/04 05:58:38;;;;;;;;;;;;;;;5.66;100.00;102518.53;2615812;36;20043;-51
2023/03/04 06:01:07;;;;;;;4.68;1.48;;;;;;;5.56;100.00;102518.91;2615161;36;19946;-55
2023/03/04 06:03:42;;;;;;;8.98;1.48;;;;;;;5.46;100.00;102525.53;2614863;54;20053;-53
2023/03/04 06:06:10;;;;;;;6.45;1.25;;;;;;;5.42;100.00;102523.97;2615760;36;20635;-54
2023/03/04 06:08:39;;;;;;;8.13;1.15;;;;;;;5.41;100.00;102516.88;2615902;36;20112;-53
2023/03/04 06:11:08;;;;;;;9.70;1.52;;;;;;;5.56;100.00;102513.56;2614896;36;20061;-53
2023/03/04 06:13:37;;;;;;;6.53;1.40;;;;;;;5.57;100.00;102520.66;2616207;36;20458;-54
2023/03/04 06:16:06;;;;;;;8.75;1.55;;;;;;;5.51;100.00;102520.03;2615016;31;20030;-52
2023/03/04 06:18:34;;;;;;;12.32;1.52;;;;;;;5.43;100.00;102523.00;2613824;36;20026;-50
2023/03/04 06:21:05;;;;;;;6.87;1.40;;;;;;;5.47;100.00;102513.94;2615303;36;20038;-54
2023/03/04 06:23:34;;;;;;;2.72;1.17;;;;;;;5.54;100.00;102514.56;2615725;36;20953;-54
2023/03/04 06:26:03;;;;;;;5.32;1.52;;;;;;;5.49;100.00;102525.44;2615201;36;20037;-50
2023/03/04 06:28:31;;;;;;;5.45;1.45;;;;;;;5.29;100.00;102526.22;2615046;36;20034;-51
2023/03/04 06:31:00;;;;;;;15.27;1.85;;;;;;;5.21;100.00;102526.53;2613980;36;20034;-50
2023/03/04 06:33:28;;;;;;;5.70;1.58;;;;;;;5.33;100.00;102521.63;2614263;36;20039;-50
2023/03/04 06:35:57;;;;;;;13.50;6.47;;;;;;;5.37;100.00;102528.59;2615726;36;20026;-50
2023/03/04 06:38:28;;;;;;;7.90;2.53;;;;;;;5.30;100.00;102519.09;2614589;36;20034;-50
2023/03/04 06:40:57;;;;;;;5.13;1.40;;;;;;;5.24;100.00;102531.75;2614068;36;20042;-50
2023/03/04 06:43:26;;;;;;;6.28;1.35;;;;;;;5.32;100.00;102543.94;2615338;36;20038;-51
2023/03/04 06:45:54;;;;;;;5.70;2.70;;;;;;;5.35;100.00;102541.16;2614988;36;20480;-52
2023/03/04 06:48:22;;;;;;;6.40;2.35;;;;;;;5.37;100.00;102528.59;2613815;36;20049;-53
2023/03/04 06:50:51;;;;;;;4.35;1.23;;;;;;;5.40;100.00;102523.13;2615521;36;20030;-53
2023/03/04 06:53:19;;;;;;;5.25;1.60;;;;;;;5.41;100.00;102535.56;2615224;31;20042;-53
2023/03/04 06:55:51;;;;;;;6.30;1.02;;;;;;;5.53;100.00;102529.72;2614666;36;20487;-51
2023/03/04 06:58:19;;;;;;;6.10;1.17;;;;;;;5.48;100.00;102529.03;2615189;36;20336;-51
2023/03/04 07:00:47;;;;;;;1.92;0.82;;;;;;;5.45;100.00;102526.50;2615515;36;20038;-50
2023/03/04 07:03:16;;;;;;;5.70;1.05;;;;;;;5.42;100.00;102535.50;2614292;36;20038;-49
2023/03/04 07:05:44;;;;;;;5.25;0.98;;;;;;;5.50;100.00;102535.19;2614869;36;20046;-50
2023/03/04 07:08:12;;;;;;;3.63;0.82;;;;;;;5.44;100.00;102538.09;2615337;36;20110;-51
2023/03/04 07:10:41;;;;;;;2.40;0.80;;;;;;;5.47;100.00;102535.31;2614629;36;20045;-52
2023/03/04 07:13:12;;;;;;;4.40;0.73;;;;;;;5.48;100.00;102542.41;2614985;36;20041;-51
2023/03/04 07:15:40;;;;;;;3.40;0.80;;;;;;;5.65;100.00;102543.50;2614423;36;20034;-51
2023/03/04 07:18:09;;;;;;;2.22;1.20;;;;;;;5.70;100.00;102541.53;2614172;31;20041;-51
2023/03/04 07:20:37;;;;;;;5.15;1.17;;;;;;;5.68;100.00;102544.25;2614919;36;20034;-50
2023/03/04 07:23:05;;;;;;;3.45;1.35;;;;;;;5.64;100.00;102547.09;2615721;36;20610;-50
2023/03/04 07:25:33;;;;;;;5.60;1.48;;;;;;;5.79;100.00;102542.00;2614105;36;20038;-54
2023/03/04 07:28:02;;;;;;;8.05;1.38;;;;;;;5.71;100.00;102545.91;2615618;36;20034;-51
2023/03/04 07:30:33;;;;;;;8.35;1.98;;;;;;;5.59;100.00;102548.19;2616037;31;20622;-51
2023/03/04 07:33:01;;;;;;;4.35;1.50;;;;;;;5.71;100.00;102551.25;2614576;36;20535;-51
2023/03/04 07:35:29;;;;;;;3.33;0.90;;;;;;;5.64;100.00;102536.41;2615481;36;20034;-53
2023/03/04 07:37:58;;;;;;;4.95;1.42;;;;;;;5.69;100.00;102545.13;2616190;36;20042;-50
2023/03/04 07:40:27;;;;;;;5.78;1.70;;;;;;;5.71;100.00;102543.25;2615173;36;20034;-51
2023/03/04 07:42:57;;;;;;;4.35;1.05;;;;;;;5.71;100.00;102543.25;2616322;36;20604;-50
2023/03/04 07:45:26;;;;;;;5.05;1.25;;;;;;;5.92;100.00;102542.38;2616420;36;20422;-54
2023/03/04 07:47:57;;;;;;;9.10;1.45;;;;;;;5.89;100.00;102545.19;2614094;36;20168;-51
2023/03/04 07:50:25;;;;;;;6.60;1.20;;;;;;;6.04;100.00;102541.00;2615820;36;20120;-51
2023/03/04 07:52:54;;;;;;;8.30;2.05;;;;;;;6.05;100.00;102541.88;2616525;36;20438;-53
2023/03/04 07:55:29;;;;;;;6.20;1.45;;;;;;;6.15;100.00;102543.22;2615118;36;20038;-54
2023/03/04 07:57:57;;;;;;;7.10;1.20;;;;;;;6.27;100.00;102548.06;2615649;36;20130;-52
2023/03/04 08:00:26;;;;;;;4.63;0.90;;;;;;;6.10;100.00;102559.47;2615772;36;20039;-51
2023/03/04 08:02:57;;;;;;;3.33;1.02;;;;;;;6.12;100.00;102546.03;2615314;36;20479;-51
2023/03/04 08:05:25;;;;;;;4.55;1.30;;;;;;;6.12;100.00;102559.41;2615415;36;20647;-51
2023/03/04 08:07:56;;;;;;;4.40;1.40;;;;;;;6.17;100.00;102562.75;2616590;36;20423;-52
2023/03/04 08:10:24;;;;;;;5.25;1.20;;;;;;;6.24;100.00;102560.66;2615097;36;20053;-51
2023/03/04 08:12:53;;;;;;;5.97;1.08;;;;;;;6.29;100.00;102551.53;2615993;36;20045;-54
2023/03/04 08:15:21;;;;;;;5.65;1.27;;;;;;;6.30;100.00;102557.72;2614644;36;20038;-52
2023/03/04 08:17:49;;;;;;;4.13;0.93;;;;;;;6.27;100.00;102568.56;2614489;31;20034;-50
2023/03/04 08:20:21;;;;;;;4.10;1.13;;;;;;;6.23;100.00;102572.31;2614643;36;20038;-57
2023/03/04 08:22:49;;;;;;;4.32;2.03;;;;;;;6.11;100.00;102573.69;2616277;36;20038;-55
2023/03/04 08:25:17;;;;;;;3.15;1.08;;;;;;;6.06;100.00;102581.03;2615789;36;20041;-50
2023/03/04 08:27:46;;;;;;;4.10;1.20;;;;;;;6.17;100.00;102576.13;2615989;36;20049;-53
2023/03/04 08:30:15;;;;;;;2.22;1.13;;;;;;;6.20;100.00;102581.34;2614085;31;20045;-49
2023/03/04 08:32:43;;;;;;;2.58;1.20;;;;;;;6.42;100.00;102575.94;2614405;36;20582;-58
2023/03/04 08:35:11;;;;;;;3.63;1.00;;;;;;;6.32;100.00;102575.44;2615146;36;20048;-49
2023/03/04 08:37:43;;;;;;;6.07;1.10;;;;;;;6.25;100.00;102575.78;2616423;31;20423;-52
2023/03/04 08:40:14;;;;;;;6.70;1.52;;;;;;;6.32;100.00;102579.94;2615607;36;20043;-52
2023/03/04 08:42:42;;;;;;;4.38;1.00;;;;;;;6.53;100.00;102586.16;2614344;36;20046;-57
2023/03/04 08:45:12;;;;;;;8.55;1.83;;;;;;;6.47;100.00;102584.59;2614221;36;20037;-51
2023/03/04 08:47:40;;;;;;;;;;;;;;;6.47;100.00;102576.59;2614038;36;20045;-53
2023/03/04 08:50:10;;;;;;;3.90;1.42;;;;;;;6.57;100.00;102577.06;2615953;36;19993;-51
2023/03/04 08:52:38;;;;;;;8.45;1.45;;;;;;;6.70;100.00;102576.50;2615938;36;20134;-54
2023/03/04 08:55:10;;;;;;;2.97;1.17;;;;;;;6.63;100.00;102576.78;2616115;36;20039;-52
2023/03/04 08:57:38;;;;;;;7.28;1.70;;;;;;;6.71;100.00;102581.78;2615455;36;20079;-56
2023/03/04 09:00:08;;;;;;;3.85;1.20;;;;;;;6.87;100.00;102573.94;2614876;36;20046;-50
2023/03/04 09:02:36;;;;;;;5.70;1.50;;;;;;;6.89;100.00;102569.41;2613290;36;20042;-51
2023/03/04 09:05:05;;;;;;;3.53;1.15;;;;;;;7.15;100.00;102570.84;2615788;31;20043;-51
2023/03/04 09:07:34;;;;;;;5.47;1.60;;;;;;;7.27;100.00;102565.88;2615837;36;20042;-58
2023/03/04 09:10:02;;;;;;;7.63;1.50;;;;;;;7.19;100.00;102569.78;2615845;31;20505;-54
2023/03/04 09:12:33;;;;;;;5.85;1.38;;;;;;;7.25;100.00;102563.25;2615918;36;20041;-56
2023/03/04 09:15:02;;;;;;;5.75;1.15;;;;;;;7.30;100.00;102565.72;2616099;36;20049;-52
2023/03/04 09:17:30;;;;;;;4.60;1.30;;;;;;;7.26;100.00;102556.09;2615437;36;20644;-50
2023/03/04 09:19:58;;;;;;;6.43;1.30;;;;;;;7.31;100.00;102560.28;2616248;36;20069;-53
2023/03/04 09:22:27;;;;;;;3.42;1.13;;;;;;;7.14;100.00;102554.84;2615543;31;20045;-51
2023/03/04 09:24:55;;;;;;;2.75;1.10;;;;;;;7.06;100.00;102559.72;2613687;36;20038;-54
2023/03/04 09:27:23;;;;;;;4.50;1.23;;;;;;;7.05;100.00;102561.50;2615893;36;20060;-54
2023/03/04 09:29:54;;;;;;;7.45;1.80;;;;;;;6.97;100.00;102559.19;2615586;36;20026;-53
2023/03/04 09:32:23;;;;;;;11.10;4.40;;;;;;;7.05;100.00;102563.31;2614672;31;20058;-50
2023/03/04 09:34:51;;;;;;;6.82;1.27;;;;;;;7.04;100.00;102565.16;2615276;36;20030;-53
2023/03/04 09:37:19;;;;;;;5.57;1.42;;;;;;;7.03;100.00;102562.53;2615698;31;20056;-51
2023/03/04 09:39:48;;;;;;;3.15;1.60;;;;;;;7.13;100.00;102558.50;2614812;36;20046;-51
2023/03/04 09:42:27;;;;;;;2.42;1.42;;;;;;;7.37;100.00;102568.03;2615311;31;20072;-53
2023/03/04 09:44:59;;;;;;;6.50;1.30;;;;;;;7.29;100.00;102564.00;2614822;36;20041;-50
2023/03/04 09:47:28;;;;;;;8.32;1.27;;;;;;;7.11;100.00;102565.72;2614993;36;20039;-52
2023/03/04 09:50:00;;;;;;;4.63;3.45;;;;;;;7.06;100.00;102560.56;2615266;36;20034;-53
2023/03/04 09:52:44;;;;;;;3.47;1.50;;;;;;;7.18;100.00;102561.81;2615929;36;20030;-50
2023/03/04 09:55:24;;;;;;;4.25;1.13;;;;;;;7.50;100.00;102557.59;2615422;36;20037;-54
2023/03/04 09:57:55;;;;;;;2.13;1.00;;;;;;;7.58;100.00;102549.19;2614338;36;20546;-50
2023/03/04 10:00:32;;;;;;;5.20;1.40;;;;;;;7.56;100.00;102544.88;2614126;36;20048;-55
2023/03/04 10:03:10;;;;;;;6.70;1.23;;;;;;;7.63;100.00;102547.16;2614027;31;20045;-54
2023/03/04 10:05:42;;;;;;;4.72;1.42;;;;;;;7.54;100.00;102542.25;2614546;36;20034;-53
2023/03/04 10:08:25;;;;;;;4.63;1.20;;;;;;;7.59;100.00;102540.22;2615183;31;20031;-51
2023/03/04 10:10:56;;;;;;;4.70;1.02;;;;;;;7.63;100.00;102546.31;2615880;36;20026;-54
2023/03/04 10:13:32;;;;;;;4.55;1.55;;;;;;;7.62;100.00;102539.19;2615167;31;20042;-52
2023/03/04 10:16:06;;;;;;;39.90;16.02;;;;;;;7.54;100.00;102544.94;2615871;36;20049;-56
2023/03/04 10:18:39;;;;;;;4.45;2.10;;;;;;;7.48;100.00;102539.84;2615394;36;20061;-52
2023/03/04 10:21:22;;;;;;;3.38;1.20;;;;;;;7.50;100.00;102537.97;2616370;36;20042;-49
2023/03/04 10:23:52;;;;;;;5.10;2.08;;;;;;;7.36;100.00;102534.16;2616046;36;20034;-54
2023/03/04 10:26:23;;;;;;;3.88;1.45;;;;;;;7.65;100.00;102545.25;2616124;36;20079;-53
2023/03/04 10:28:51;;;;;;;7.32;1.75;;;;;;;7.58;100.00;102541.13;2615651;36;20035;-53
2023/03/04 10:31:34;;;;;;;3.40;1.48;;;;;;;7.81;100.00;102533.78;2615467;36;22154;-53
2023/03/04 10:34:03;;;;;;;6.68;1.40;;;;;;;7.88;100.00;102533.41;2615093;36;20050;-49
2023/03/04 10:36:44;;;;;;;3.88;1.40;;;;;;;8.19;100.00;102523.78;2616358;36;20466;-53
2023/03/04 10:39:14;;;;;;;7.00;1.40;;;;;;;8.40;100.00;102532.50;2615980;36;20037;-53
2023/03/04 10:41:45;;;;;;;6.53;1.77;;;;;;;8.38;100.00;102526.38;2615892;36;20038;-50
2023/03/04 10:44:18;;;;;;;14.77;1.75;;;;;;;8.29;100.00;102532.22;2615298;36;20038;-51
2023/03/04 10:46:50;;;;;;;6.10;1.40;;;;;;;8.29;100.00;102513.44;2613340;36;20052;-54
2023/03/04 10:49:21;;;;;;;5.70;1.60;;;;;;;7.91;100.00;102520.81;2613516;36;20554;-51
2023/03/04 10:51:51;;;;;;;4.10;1.52;;;;;;;7.83;100.00;102531.88;2613630;36;20038;-54
2023/03/04 10:54:26;;;;;;;4.80;1.30;;;;;;;7.99;100.00;102535.53;2614951;36;20057;-54
2023/03/04 10:57:01;;;;;;;5.03;1.00;;;;;;;7.91;100.00;102535.06;2614656;36;20278;-54
2023/03/04 10:59:36;;;;;;;2.10;1.20;;;;;;;8.05;100.00;102534.34;2614306;31;20034;-49
2023/03/04 11:02:16;;;;;;;4.32;1.13;;;;;;;8.16;100.00;102539.19;2614885;36;20065;-55
2023/03/04 11:04:51;;;;;;;5.25;1.40;;;;;;;8.30;100.00;102539.31;2615785;36;20042;-58
2023/03/04 11:07:20;;;;;;;2.90;1.02;;;;;;;8.28;100.00;102529.63;2616099;36;20502;-56
2023/03/04 11:09:48;;;;;;;6.32;1.30;;;;;;;8.47;100.00;102529.56;2614788;36;20038;-54
2023/03/04 11:12:20;;;;;;;5.28;1.33;;;;;;;8.63;100.00;102522.44;2615915;36;20041;-57
2023/03/04 11:14:51;;;;;;;6.10;1.10;;;;;;;8.38;100.00;102528.19;2616410;36;20045;-52
2023/03/04 11:17:27;;;;;;;4.00;1.15;;;;;;;8.69;100.00;102514.03;2615768;36;20026;-53
2023/03/04 11:20:00;;;;;;;5.68;1.27;;;;;;;9.07;100.00;102511.06;2616051;36;20038;-53
2023/03/04 11:22:30;;;;;;;5.47;1.45;;;;;;;9.07;100.00;102510.22;2615727;36;20045;-53
2023/03/04 11:25:04;;;;;;;16.15;6.43;;;;;;;9.23;100.00;102504.81;2614814;36;20045;-55
2023/03/04 11:27:43;;;;;;;15.20;5.10;;;;;;;8.97;100.00;102499.09;2614669;36;20065;-54
2023/03/04 11:30:33;;;;;;;;;;;;;;;8.77;100.00;102506.44;2614940;31;20026;-52
2023/03/04 11:33:11;;;;;;;13.00;3.45;;;;;;;8.45;100.00;102512.66;2615110;36;19942;-52
2023/03/04 11:36:24;;;;;;;11.63;2.83;;;;;;;8.35;100.00;102506.91;2617617;36;20093;-52
2023/03/04 11:38:53;;;;;;;10.88;4.82;;;;;;;7.90;100.00;102517.22;2619417;36;20034;-52